createdAt,value
2023-03-18T00:03:30.809Z,49.09
2023-03-18T00:08:30.629Z,48.76
2023-03-18T00:13:30.538Z,48.58
2023-03-18T00:18:30.564Z,49.09
2023-03-18T00:23:30.457Z,49.83
2023-03-18T00:28:30.503Z,49.32
2023-03-18T00:33:30.384Z,48.89
2023-03-18T00:38:33.353Z,49.21
2023-03-18T00:43:30.173Z,49.09
2023-03-18T00:48:30.333Z,48.68
2023-03-18T00:53:30.049Z,49.21
2023-03-18T00:58:30.107Z,48.79
2023-03-18T01:03:30.003Z,48.89
2023-03-18T01:08:29.939Z,49.83
2023-03-18T01:13:29.914Z,50.23
2023-03-18T01:18:29.766Z,50.87
2023-03-18T01:23:29.670Z,51.40
2023-03-18T01:28:29.802Z,51.51
2023-03-18T01:33:29.536Z,51.61
2023-03-18T01:38:33.124Z,50.67
2023-03-18T01:43:29.432Z,50.87
2023-03-18T01:48:29.425Z,50.74
2023-03-18T01:53:29.270Z,51.28
2023-03-18T01:58:29.294Z,51.28
2023-03-18T02:03:29.144Z,51.71
2023-03-18T02:08:29.171Z,51.28
2023-03-18T02:13:29.077Z,51.79
2023-03-18T02:18:29.045Z,51.07
2023-03-18T02:23:29.016Z,51.05
2023-03-18T02:28:28.850Z,51.48
2023-03-18T02:33:28.735Z,51.25
2023-03-18T02:38:32.011Z,51.89
2023-03-18T02:43:28.666Z,52.53
2023-03-18T02:48:28.651Z,52.83
2023-03-18T02:53:28.478Z,52.53
2023-03-18T02:58:29.465Z,52.29
2023-03-18T03:03:28.425Z,52.01
2023-03-18T03:08:28.359Z,52.62
2023-03-18T03:13:28.251Z,54.64
2023-03-18T03:18:28.275Z,54.95
2023-03-18T03:23:35.596Z,55.05
2023-03-18T03:28:35.545Z,54.85
2023-03-18T03:33:28.030Z,55.79
2023-03-18T03:38:30.955Z,56.74
2023-03-18T03:43:27.869Z,56.84
2023-03-18T03:48:28.456Z,56.20
2023-03-18T03:53:27.681Z,54.92
2023-03-18T03:58:27.708Z,54.59
2023-03-18T04:03:27.580Z,54.16
2023-03-18T04:08:27.596Z,53.22
2023-03-18T04:13:27.482Z,53.09
2023-03-18T04:18:27.410Z,53.92
2023-03-18T04:23:27.299Z,55.13
2023-03-18T04:28:27.323Z,54.74
2023-03-18T04:33:27.183Z,55.07
2023-03-18T04:38:30.183Z,54.46
2023-03-18T04:43:27.037Z,55.28
2023-03-18T04:48:27.014Z,56.25
2023-03-18T04:53:26.957Z,55.79
2023-03-18T04:58:27.587Z,55.48
2023-03-18T05:03:26.822Z,55.18
2023-03-18T05:08:26.863Z,55.69
2023-03-18T05:13:26.642Z,56.40
2023-03-18T05:18:26.645Z,57.27
2023-03-18T05:23:26.679Z,57.70
2023-03-18T05:28:26.487Z,57.81
2023-03-18T05:33:26.423Z,58.25
2023-03-18T05:38:29.378Z,59.42
2023-03-18T05:43:26.277Z,57.22
2023-03-18T05:48:26.241Z,59.34
2023-03-18T05:53:26.344Z,58.32
2023-03-18T05:58:26.114Z,57.88
2023-03-18T06:03:26.065Z,56.53
2023-03-18T06:08:26.044Z,56.60
2023-03-18T06:13:25.972Z,58.34
2023-03-18T06:18:25.883Z,57.29
2023-03-18T06:23:25.739Z,56.88
2023-03-18T06:28:25.775Z,58.11
2023-03-18T06:33:25.628Z,58.87
2023-03-18T06:38:28.618Z,57.62
2023-03-18T06:43:25.487Z,56.22
2023-03-18T06:48:25.446Z,56.07
2023-03-18T06:53:25.429Z,53.85
2023-03-18T06:58:25.306Z,54.05
2023-03-18T07:03:25.207Z,51.95
2023-03-18T07:08:25.229Z,51.52
2023-03-18T07:13:25.056Z,50.35
2023-03-18T07:18:25.153Z,51.92
2023-03-18T07:23:25.086Z,51.82
2023-03-18T07:28:25.001Z,51.49
2023-03-18T07:33:24.789Z,53.67
2023-03-18T07:38:27.842Z,52.58
2023-03-18T07:43:24.763Z,52.08
2023-03-18T07:48:24.652Z,51.21
2023-03-18T07:53:24.526Z,51.72
2023-03-18T07:58:24.500Z,50.26
2023-03-18T08:03:24.403Z,50.34
2023-03-18T08:08:24.430Z,51.21
2023-03-18T08:13:24.263Z,50.96
2023-03-18T08:18:32.105Z,50.26
2023-03-18T08:23:31.626Z,48.99
2023-03-18T08:28:24.150Z,50.26
2023-03-18T08:33:24.011Z,49.80
2023-03-18T08:38:27.022Z,50.56
2023-03-18T08:43:24.185Z,51.29
2023-03-18T08:48:23.923Z,50.34
2023-03-18T08:53:23.849Z,50.09
2023-03-18T08:58:23.748Z,50.35
2023-03-18T09:03:23.696Z,50.84
2023-03-18T09:08:23.604Z,50.61
2023-03-18T09:13:23.730Z,50.18
2023-03-18T09:18:23.455Z,49.93
2023-03-18T09:23:23.355Z,49.10
2023-03-18T09:28:23.610Z,48.05
2023-03-18T09:33:23.199Z,48.02
2023-03-18T09:38:26.337Z,49.13
2023-03-18T09:43:23.133Z,50.87
2023-03-18T09:48:23.151Z,50.04
2023-03-18T09:53:23.002Z,48.21
2023-03-18T09:58:22.953Z,46.73
2023-03-18T10:03:22.847Z,46.44
2023-03-18T10:08:22.865Z,47.19
2023-03-18T10:13:22.773Z,46.73
2023-03-18T10:18:23.136Z,48.76
2023-03-18T10:23:22.678Z,48.11
2023-03-18T10:28:22.620Z,46.03
2023-03-18T10:33:22.484Z,47.00
2023-03-18T10:38:25.485Z,46.49
2023-03-18T10:43:22.343Z,48.60
2023-03-18T10:48:22.300Z,45.84
2023-03-18T10:53:22.170Z,45.12
2023-03-18T10:58:22.274Z,45.02
2023-03-18T11:03:22.086Z,46.77
2023-03-18T11:08:22.050Z,46.77
2023-03-18T11:13:21.957Z,45.99
2023-03-18T11:18:21.995Z,46.89
2023-03-18T11:23:21.800Z,48.25
2023-03-18T11:28:21.783Z,50.65
2023-03-18T11:33:21.662Z,48.37
2023-03-18T11:38:24.658Z,50.53
2023-03-18T11:43:21.519Z,48.90
2023-03-18T11:48:21.563Z,48.35
2023-03-18T11:53:21.470Z,48.25
2023-03-18T11:58:21.420Z,47.92
2023-03-18T12:03:21.257Z,48.00
2023-03-18T12:08:21.339Z,48.40
2023-03-18T12:13:21.127Z,47.88
2023-03-18T12:18:21.234Z,48.46
2023-03-18T12:23:21.039Z,47.75
2023-03-18T12:28:20.988Z,47.85
2023-03-18T12:33:20.864Z,47.93
2023-03-18T12:38:23.851Z,48.83
2023-03-18T12:43:20.750Z,49.21
2023-03-18T12:48:27.785Z,47.56
2023-03-18T12:53:21.788Z,47.31
2023-03-18T12:58:20.649Z,46.54
2023-03-18T13:03:20.631Z,46.74
2023-03-18T13:08:20.419Z,46.64
2023-03-18T13:13:20.972Z,47.86
2023-03-18T13:18:27.741Z,47.44
2023-03-18T13:23:27.253Z,44.89
2023-03-18T13:28:28.042Z,45.34
2023-03-18T13:33:20.157Z,46.66
2023-03-18T13:38:23.081Z,46.96
2023-03-18T13:43:19.972Z,48.01
2023-03-18T13:48:19.944Z,47.28
2023-03-18T13:53:19.824Z,46.96
2023-03-18T13:58:19.858Z,46.42
2023-03-18T14:03:19.780Z,46.12
2023-03-18T14:08:19.692Z,47.14
2023-03-18T14:13:19.685Z,47.26
2023-03-18T14:18:20.061Z,45.79
2023-03-18T14:23:19.441Z,44.33
2023-03-18T14:28:19.478Z,45.53
2023-03-18T14:33:19.419Z,43.61
2023-03-18T14:38:22.774Z,42.03
2023-03-18T14:43:19.991Z,42.71
2023-03-18T14:48:19.161Z,39.35
2023-03-18T14:53:19.107Z,40.92
2023-03-18T14:58:19.113Z,40.02
2023-03-18T15:03:20.123Z,42.43
2023-03-18T15:08:19.526Z,42.95
2023-03-18T15:13:18.881Z,45.12
2023-03-18T15:18:18.751Z,46.46
2023-03-18T15:23:18.736Z,45.39
2023-03-18T15:28:18.764Z,44.57
2023-03-18T15:33:18.504Z,45.39
2023-03-18T15:38:21.614Z,45.34
2023-03-18T15:43:18.465Z,46.41
2023-03-18T15:48:18.361Z,45.78
2023-03-18T15:53:18.278Z,46.16
2023-03-18T15:58:18.233Z,46.48
2023-03-18T16:03:18.146Z,46.70
2023-03-18T16:08:18.094Z,47.83
2023-03-18T16:13:17.990Z,48.96
2023-03-18T16:18:18.010Z,49.98
2023-03-18T16:23:17.880Z,51.21
2023-03-18T16:28:17.937Z,53.80
2023-03-18T16:33:17.735Z,56.09
2023-03-18T16:38:20.797Z,57.65
2023-03-18T16:43:17.598Z,57.68
2023-03-18T16:48:17.918Z,57.91
2023-03-18T16:53:17.674Z,58.45
2023-03-18T16:58:20.272Z,60.42
2023-03-18T17:03:17.336Z,61.99
2023-03-18T17:08:18.267Z,62.84
2023-03-18T17:13:17.286Z,64.21
2023-03-18T17:18:17.279Z,64.75
2023-03-18T17:23:17.065Z,65.39
2023-03-18T17:28:23.795Z,63.81
2023-03-18T17:33:17.005Z,64.27
2023-03-18T17:38:19.958Z,66.69
2023-03-18T17:43:16.921Z,67.24
2023-03-18T17:48:16.798Z,66.08
2023-03-18T17:53:16.708Z,64.91
2023-03-18T17:58:24.562Z,65.99
2023-03-18T18:03:24.031Z,67.57
2023-03-18T18:08:23.915Z,67.67
2023-03-18T18:13:23.795Z,66.49
2023-03-18T18:18:16.507Z,67.36
2023-03-18T18:23:16.405Z,67.97
2023-03-18T18:28:16.236Z,67.47
2023-03-18T18:33:16.178Z,67.30
2023-03-18T18:38:19.266Z,67.60
2023-03-18T18:43:16.200Z,70.68
2023-03-18T18:48:16.161Z,71.19
2023-03-18T18:53:15.913Z,70.04
2023-03-18T18:58:16.555Z,70.68
2023-03-18T19:03:15.851Z,72.38
2023-03-18T19:08:15.849Z,72.08
2023-03-18T19:13:15.643Z,72.52
2023-03-18T19:18:15.729Z,73.50
2023-03-18T19:23:15.569Z,73.43
2023-03-18T19:28:15.610Z,73.43
2023-03-18T19:33:15.374Z,70.89
2023-03-18T19:38:18.384Z,72.52
2023-03-18T19:43:15.268Z,74.25
2023-03-18T19:48:15.251Z,72.92
2023-03-18T19:53:15.128Z,73.06
2023-03-18T19:58:17.407Z,75.51
2023-03-18T20:03:15.046Z,76.64
2023-03-18T20:08:15.185Z,73.84
2023-03-18T20:13:14.973Z,73.03
2023-03-18T20:18:15.112Z,72.99
2023-03-18T20:23:14.736Z,72.62
2023-03-18T20:28:14.746Z,74.32
2023-03-18T20:33:14.600Z,74.08
2023-03-18T20:38:18.405Z,75.85
2023-03-18T20:43:14.510Z,76.47
2023-03-18T20:48:14.562Z,77.29
2023-03-18T20:53:14.349Z,77.90
2023-03-18T20:58:14.702Z,75.99
2023-03-18T21:03:14.201Z,74.79
2023-03-18T21:08:14.205Z,73.47
2023-03-18T21:13:14.076Z,76.23
2023-03-18T21:18:14.237Z,77.15
2023-03-18T21:23:14.021Z,75.99
2023-03-18T21:28:14.046Z,74.73
2023-03-18T21:33:13.850Z,75.82
2023-03-18T21:38:16.780Z,78.96
2023-03-18T21:43:13.730Z,79.41
2023-03-18T21:48:13.886Z,78.28
2023-03-18T21:53:13.557Z,79.44
2023-03-18T21:58:14.822Z,79.58
2023-03-18T22:03:13.444Z,80.47
2023-03-18T22:08:13.479Z,81.05
2023-03-18T22:13:13.358Z,78.69
2023-03-18T22:18:13.347Z,79.68
2023-03-18T22:23:13.277Z,80.85
2023-03-18T22:28:13.321Z,81.26
2023-03-18T22:33:13.362Z,80.51
2023-03-18T22:38:16.049Z,79.34
2023-03-18T22:43:12.932Z,79.89
2023-03-18T22:48:13.126Z,78.69
2023-03-18T22:53:20.048Z,76.03
2023-03-18T22:58:19.829Z,76.57
2023-03-18T23:03:13.042Z,77.94
2023-03-18T23:08:12.583Z,77.59
2023-03-18T23:13:20.015Z,76.33
2023-03-18T23:18:12.451Z,76.33
2023-03-18T23:23:12.400Z,75.17
2023-03-18T23:28:12.329Z,74.87
2023-03-18T23:33:12.407Z,75.48
2023-03-18T23:38:15.246Z,76.78
2023-03-18T23:43:12.201Z,78.34
2023-03-18T23:48:12.140Z,76.33
2023-03-18T23:53:12.820Z,75.78
2023-03-18T23:58:12.008Z,75.78
